createdAt,value
2022-08-09T00:00:07.264Z,4.65
2022-08-09T00:02:34.929Z,4.93
2022-08-09T00:06:15.933Z,5.03
2022-08-09T00:07:49.043Z,4.33
2022-08-09T00:10:21.218Z,4.35
2022-08-09T00:12:51.699Z,4.80
2022-08-09T00:15:19.556Z,4.53
2022-08-09T00:18:04.693Z,4.40
2022-08-09T00:20:32.576Z,4.67
2022-08-09T00:23:00.736Z,5.05
2022-08-09T00:25:51.912Z,4.75
2022-08-09T00:28:19.302Z,4.70
2022-08-09T00:30:49.877Z,4.95
2022-08-09T00:33:17.160Z,4.70
2022-08-09T00:35:43.854Z,4.50
2022-08-09T00:38:12.966Z,4.47
2022-08-09T00:40:40.280Z,4.70
2022-08-09T00:44:13.328Z,4.43
2022-08-09T00:46:09.388Z,4.30
2022-08-09T00:48:37.078Z,5.40
2022-08-09T00:51:12.047Z,5.25
2022-08-09T00:53:39.951Z,5.07
2022-08-09T00:56:09.456Z,4.97
2022-08-09T00:58:36.248Z,4.90
2022-08-09T01:01:15.933Z,5.57
2022-08-09T01:04:05.501Z,5.10
2022-08-09T01:06:54.301Z,5.35
2022-08-09T01:09:40.352Z,5.40
2022-08-09T01:12:12.706Z,5.87
2022-08-09T01:14:53.185Z,6.18
2022-08-09T01:17:30.361Z,5.43
2022-08-09T01:20:04.149Z,5.85
2022-08-09T01:22:52.026Z,5.93
2022-08-09T01:25:57.446Z,5.87
2022-08-09T01:28:25.384Z,5.70
2022-08-09T01:30:54.921Z,5.97
2022-08-09T01:33:27.490Z,5.85
2022-08-09T01:36:03.889Z,6.13
2022-08-09T01:38:33.031Z,5.37
2022-08-09T01:41:05.071Z,5.57
2022-08-09T01:43:41.817Z,5.75
2022-08-09T01:46:24.967Z,5.63
2022-08-09T01:49:00.316Z,6.10
2022-08-09T01:51:42.712Z,5.63
2022-08-09T01:54:09.951Z,5.50
2022-08-09T01:56:39.895Z,5.80
2022-08-09T01:59:16.118Z,5.70
2022-08-09T02:01:59.013Z,5.47
2022-08-09T02:04:29.850Z,5.67
2022-08-09T02:08:36.039Z,5.40
2022-08-09T02:10:09.385Z,5.20
2022-08-09T02:12:37.405Z,5.38
2022-08-09T02:15:07.923Z,5.57
2022-08-09T02:18:01.601Z,5.70
2022-08-09T02:20:26.325Z,5.00
2022-08-09T02:23:11.097Z,5.45
2022-08-09T02:25:42.059Z,5.50
2022-08-09T02:28:17.987Z,5.22
2022-08-09T02:30:48.804Z,5.00
2022-08-09T02:33:23.088Z,5.22
2022-08-09T02:36:06.667Z,5.30
2022-08-09T02:38:55.988Z,5.47
2022-08-09T02:41:27.346Z,5.68
2022-08-09T02:44:01.169Z,6.23
2022-08-09T02:46:38.535Z,6.07
2022-08-09T02:49:10.015Z,5.95
2022-08-09T02:51:40.441Z,5.70
2022-08-09T02:54:09.059Z,5.13
2022-08-09T02:56:36.445Z,5.70
2022-08-09T02:59:05.674Z,5.88
2022-08-09T03:01:43.164Z,5.32
2022-08-09T03:04:21.550Z,5.50
2022-08-09T03:06:56.829Z,5.88
2022-08-09T03:09:27.035Z,5.73
2022-08-09T03:12:06.750Z,6.15
2022-08-09T03:14:39.480Z,5.93
2022-08-09T03:17:07.649Z,5.60
2022-08-09T03:19:58.471Z,5.50
2022-08-09T03:22:31.045Z,5.40
2022-08-09T03:25:06.394Z,5.90
2022-08-09T03:27:55.364Z,5.80
2022-08-09T03:30:29.902Z,5.68
2022-08-09T03:33:05.729Z,5.85
2022-08-09T03:36:13.260Z,5.50
2022-08-09T03:38:31.218Z,5.13
2022-08-09T03:40:58.229Z,5.97
2022-08-09T03:43:25.061Z,5.63
2022-08-09T03:46:04.727Z,5.78
2022-08-09T03:48:50.962Z,5.87
2022-08-09T03:51:55.509Z,5.63
2022-08-09T03:54:11.090Z,5.30
2022-08-09T03:56:38.959Z,5.75
2022-08-09T03:59:13.865Z,5.57
2022-08-09T04:01:44.262Z,5.30
2022-08-09T04:04:14.846Z,5.47
2022-08-09T04:06:44.094Z,5.55
2022-08-09T04:09:48.375Z,5.57
2022-08-09T04:12:30.031Z,5.65
2022-08-09T04:15:01.668Z,5.43
2022-08-09T04:17:37.869Z,5.25
2022-08-09T04:20:07.466Z,5.78
2022-08-09T04:22:34.240Z,5.05
2022-08-09T04:25:01.542Z,5.35
2022-08-09T04:27:29.788Z,5.47
2022-08-09T04:29:59.223Z,5.50
2022-08-09T04:32:31.642Z,5.57
2022-08-09T04:35:03.723Z,5.65
2022-08-09T04:37:45.827Z,5.85
2022-08-09T04:40:29.044Z,5.40
2022-08-09T04:43:00.867Z,6.03
2022-08-09T04:45:30.382Z,6.82
2022-08-09T04:48:03.063Z,5.60
2022-08-09T04:50:37.619Z,6.18
2022-08-09T04:53:13.044Z,6.00
2022-08-09T04:55:57.378Z,6.45
2022-08-09T04:58:25.976Z,5.65
2022-08-09T05:00:52.793Z,6.22
2022-08-09T05:03:42.901Z,6.57
2022-08-09T05:06:08.296Z,5.40
2022-08-09T05:08:35.600Z,6.40
2022-08-09T05:11:03.112Z,5.82
2022-08-09T05:13:33.066Z,6.18
2022-08-09T05:16:00.501Z,6.00
2022-08-09T05:18:38.874Z,5.67
2022-08-09T05:21:23.329Z,5.18
2022-08-09T05:24:00.608Z,5.82
2022-08-09T05:26:36.853Z,5.32
2022-08-09T05:29:17.239Z,5.22
2022-08-09T05:31:50.445Z,5.13
2022-08-09T05:34:30.188Z,5.55
2022-08-09T05:37:01.779Z,5.95
2022-08-09T05:39:43.576Z,5.15
2022-08-09T05:42:17.597Z,6.20
2022-08-09T05:44:50.779Z,5.57
2022-08-09T05:47:18.389Z,5.65
2022-08-09T05:50:34.931Z,4.65
2022-08-09T05:52:31.801Z,4.88
2022-08-09T05:55:03.198Z,4.70
2022-08-09T05:57:55.411Z,5.10
2022-08-09T06:00:28.935Z,4.78
2022-08-09T06:02:58.829Z,5.15
2022-08-09T06:05:50.420Z,4.63
2022-08-09T06:08:13.607Z,4.80
2022-08-09T06:10:46.463Z,4.77
2022-08-09T06:13:20.376Z,4.50
2022-08-09T06:15:51.814Z,4.63
2022-08-09T06:18:24.938Z,4.38
2022-08-09T06:20:57.157Z,4.60
2022-08-09T06:23:58.236Z,4.30
2022-08-09T06:26:20.482Z,4.40
2022-08-09T06:29:00.746Z,3.80
2022-08-09T06:31:40.458Z,3.88
2022-08-09T06:34:22.546Z,3.78
2022-08-09T06:36:59.133Z,3.40
2022-08-09T06:39:48.299Z,3.30
2022-08-09T06:42:14.508Z,3.30
2022-08-09T06:44:41.099Z,3.00
2022-08-09T06:47:08.517Z,2.92
2022-08-09T06:50:11.270Z,2.90
2022-08-09T06:52:25.218Z,2.92
2022-08-09T06:54:52.273Z,3.30
2022-08-09T06:57:20.833Z,2.97
2022-08-09T07:00:51.244Z,3.28
2022-08-09T07:02:54.632Z,3.10
2022-08-09T07:05:21.268Z,3.28
2022-08-09T07:08:00.144Z,2.95
2022-08-09T07:10:31.413Z,2.90
2022-08-09T07:13:00.677Z,3.35
2022-08-09T07:15:54.088Z,3.40
2022-08-09T07:18:32.391Z,3.05
2022-08-09T07:20:58.905Z,3.25
2022-08-09T07:23:26.116Z,3.20
2022-08-09T07:26:02.454Z,3.17
2022-08-09T07:28:30.751Z,3.23
2022-08-09T07:31:08.834Z,3.20
2022-08-09T07:33:52.909Z,3.30
2022-08-09T07:36:22.491Z,3.25
2022-08-09T07:38:56.740Z,2.65
2022-08-09T07:41:26.980Z,2.80
2022-08-09T07:44:00.027Z,2.63
2022-08-09T07:46:27.963Z,2.95
2022-08-09T07:48:59.526Z,2.78
2022-08-09T07:52:06.122Z,2.90
2022-08-09T07:54:14.276Z,3.10
2022-08-09T07:56:49.129Z,3.03
2022-08-09T07:59:33.749Z,2.80
2022-08-09T08:02:01.904Z,2.90
2022-08-09T08:04:32.381Z,3.25
2022-08-09T08:07:14.972Z,2.83
2022-08-09T08:09:54.935Z,2.72
2022-08-09T08:12:42.332Z,2.75
2022-08-09T08:15:24.306Z,2.72
2022-08-09T08:17:54.705Z,2.75
2022-08-09T08:20:29.298Z,2.73
2022-08-09T08:23:06.290Z,2.70
2022-08-09T08:25:48.221Z,2.88
2022-08-09T08:28:32.471Z,3.10
2022-08-09T08:31:04.878Z,3.08
2022-08-09T08:33:40.644Z,2.90
2022-08-09T08:36:22.456Z,2.50
2022-08-09T08:38:56.251Z,2.80
2022-08-09T08:41:23.398Z,2.30
2022-08-09T08:43:51.127Z,2.63
2022-08-09T08:46:33.413Z,2.80
2022-08-09T08:49:12.804Z,2.60
2022-08-09T08:52:00.494Z,2.53
2022-08-09T08:54:30.728Z,2.42
2022-08-09T08:56:57.474Z,2.50
2022-08-09T08:59:24.078Z,2.40
2022-08-09T09:02:09.472Z,2.30
2022-08-09T09:04:47.838Z,2.50
2022-08-09T09:07:21.249Z,2.15
2022-08-09T09:09:59.613Z,2.50
2022-08-09T09:12:32.059Z,2.50
2022-08-09T09:15:02.324Z,2.60
2022-08-09T09:17:48.369Z,2.53
2022-08-09T09:20:16.066Z,2.60
2022-08-09T09:22:55.689Z,2.40
2022-08-09T09:26:02.451Z,2.37
2022-08-09T09:29:01.942Z,2.30
2022-08-09T09:32:05.887Z,2.80
2022-08-09T09:34:14.616Z,2.28
2022-08-09T09:36:52.852Z,2.70
2022-08-09T09:39:22.975Z,2.47
2022-08-09T09:41:51.333Z,3.13
2022-08-09T09:44:34.966Z,2.97
2022-08-09T09:47:09.367Z,2.60
2022-08-09T09:49:56.294Z,2.63
2022-08-09T09:52:35.933Z,2.60
2022-08-09T09:55:16.141Z,2.80
2022-08-09T09:58:04.373Z,2.65
2022-08-09T10:00:52.621Z,2.60
2022-08-09T10:03:58.044Z,2.70
2022-08-09T10:06:43.040Z,2.33
2022-08-09T10:09:23.109Z,2.70
2022-08-09T10:12:14.302Z,2.42
2022-08-09T10:14:48.929Z,2.70
2022-08-09T10:17:51.446Z,2.10
2022-08-09T10:20:27.172Z,2.60
2022-08-09T10:23:13.831Z,2.60
2022-08-09T10:26:07.625Z,2.65
2022-08-09T10:28:33.673Z,2.72
2022-08-09T10:34:08.544Z,2.83
2022-08-09T10:36:33.764Z,2.33
2022-08-09T10:39:02.395Z,2.97
2022-08-09T10:41:28.935Z,2.85
2022-08-09T10:43:59.428Z,2.30
2022-08-09T10:46:55.219Z,2.80
2022-08-09T10:49:42.401Z,2.65
2022-08-09T10:52:42.933Z,2.42
2022-08-09T10:55:25.957Z,2.72
2022-08-09T10:57:55.886Z,3.13
2022-08-09T11:00:29.554Z,2.50
2022-08-09T11:03:14.076Z,2.35
2022-08-09T11:06:26.109Z,2.67
2022-08-09T11:08:53.844Z,2.20
2022-08-09T11:11:23.498Z,2.20
2022-08-09T11:14:38.305Z,2.83
2022-08-09T11:17:13.781Z,2.60
2022-08-09T11:20:11.867Z,2.55
2022-08-09T11:22:42.606Z,2.30
2022-08-09T11:25:19.225Z,2.55
2022-08-09T11:28:04.836Z,2.17
2022-08-09T11:30:37.650Z,2.35
2022-08-09T11:33:17.419Z,2.70
2022-08-09T11:35:49.891Z,2.80
2022-08-09T11:38:30.993Z,2.80
2022-08-09T11:41:13.533Z,2.60
2022-08-09T11:43:43.055Z,2.40
2022-08-09T11:46:11.876Z,2.47
2022-08-09T11:48:55.403Z,2.70
2022-08-09T11:52:59.133Z,2.63
2022-08-09T11:54:28.484Z,2.63
2022-08-09T11:57:47.992Z,2.78
2022-08-09T12:00:28.122Z,2.72
2022-08-09T12:02:56.498Z,2.42
2022-08-09T12:05:42.149Z,2.67
2022-08-09T12:08:21.560Z,2.33
2022-08-09T12:10:53.611Z,2.33
2022-08-09T12:14:07.726Z,2.60
2022-08-09T12:16:37.708Z,2.30
2022-08-09T12:19:08.602Z,2.30
2022-08-09T12:21:39.249Z,2.30
2022-08-09T12:24:24.434Z,2.40
2022-08-09T12:29:00.150Z,2.47
2022-08-09T12:29:44.531Z,2.05
2022-08-09T12:32:26.885Z,2.40
2022-08-09T12:35:02.900Z,3.60
2022-08-09T12:37:50.350Z,2.53
2022-08-09T12:40:23.156Z,2.53
2022-08-09T12:42:52.034Z,2.40
2022-08-09T12:45:34.734Z,2.63
2022-08-09T12:48:20.044Z,2.83
2022-08-09T12:50:57.007Z,2.47
2022-08-09T12:53:37.834Z,2.58
2022-08-09T12:56:43.385Z,2.00
2022-08-09T12:59:08.844Z,2.13
2022-08-09T13:01:46.870Z,2.03
2022-08-09T13:04:36.954Z,2.00
2022-08-09T13:07:11.206Z,2.10
2022-08-09T13:09:40.780Z,2.20
2022-08-09T13:12:09.666Z,2.20
2022-08-09T13:14:40.975Z,2.93
2022-08-09T13:17:43.863Z,2.08
2022-08-09T13:20:13.328Z,2.38
2022-08-09T13:23:01.989Z,2.20
2022-08-09T13:25:54.743Z,2.00
2022-08-09T13:28:34.548Z,1.83
2022-08-09T13:32:15.826Z,1.95
2022-08-09T13:33:56.866Z,2.03
2022-08-09T13:36:40.537Z,1.75
2022-08-09T13:41:19.030Z,2.00
2022-08-09T13:42:05.604Z,1.63
2022-08-09T13:44:42.050Z,1.70
2022-08-09T13:47:31.347Z,1.80
2022-08-09T13:50:29.879Z,2.40
2022-08-09T13:52:57.987Z,2.08
2022-08-09T13:55:24.570Z,2.10
2022-08-09T13:57:58.490Z,2.15
2022-08-09T14:00:29.002Z,2.38
2022-08-09T14:03:02.958Z,4.10
2022-08-09T14:05:56.744Z,2.13
2022-08-09T14:08:29.218Z,2.13
2022-08-09T14:10:56.641Z,1.67
2022-08-09T14:14:15.971Z,2.08
2022-08-09T14:16:14.155Z,1.88
2022-08-09T14:18:43.250Z,2.00
2022-08-09T14:21:17.562Z,2.33
2022-08-09T14:23:55.302Z,1.95
2022-08-09T14:26:30.154Z,2.20
2022-08-09T14:30:18.915Z,2.38
2022-08-09T14:31:58.494Z,2.03
2022-08-09T14:34:33.002Z,2.00
2022-08-09T14:37:07.769Z,1.90
2022-08-09T14:39:47.134Z,2.20
2022-08-09T14:42:29.120Z,2.25
2022-08-09T14:45:00.895Z,1.98
2022-08-09T14:47:45.290Z,1.87
2022-08-09T14:50:16.296Z,1.90
2022-08-09T14:52:43.993Z,1.92
2022-08-09T14:55:20.000Z,2.00
2022-08-09T14:57:47.375Z,2.00
2022-08-09T15:00:15.454Z,2.20
2022-08-09T15:02:41.964Z,1.90
2022-08-09T15:05:12.820Z,2.50
2022-08-09T15:07:45.253Z,2.20
2022-08-09T15:10:14.532Z,2.03
2022-08-09T15:12:45.073Z,1.97
2022-08-09T15:15:13.210Z,2.10
2022-08-09T15:17:42.611Z,2.13
2022-08-09T15:20:15.270Z,1.95
2022-08-09T15:24:00.954Z,2.20
2022-08-09T15:25:52.234Z,2.00
2022-08-09T15:28:26.353Z,2.20
2022-08-09T15:31:09.907Z,2.10
2022-08-09T15:34:17.785Z,2.10
2022-08-09T15:36:30.151Z,2.30
2022-08-09T15:38:58.743Z,2.20
2022-08-09T15:41:31.136Z,2.30
2022-08-09T15:44:01.730Z,2.17
2022-08-09T15:46:34.248Z,2.10
2022-08-09T15:49:21.252Z,2.35
2022-08-09T15:52:04.113Z,2.10
2022-08-09T15:54:44.813Z,2.20
2022-08-09T15:57:13.400Z,2.45
2022-08-09T15:59:40.308Z,4.43
2022-08-09T16:02:08.747Z,2.65
2022-08-09T16:04:40.383Z,2.20
2022-08-09T16:07:10.824Z,2.13
2022-08-09T16:09:57.615Z,2.50
2022-08-09T16:12:23.995Z,2.60
2022-08-09T16:14:57.302Z,2.55
2022-08-09T16:17:28.835Z,2.53
2022-08-09T16:20:04.771Z,2.40
2022-08-09T16:22:42.470Z,3.10
2022-08-09T16:25:15.869Z,2.45
2022-08-09T16:27:42.691Z,2.70
2022-08-09T16:30:15.345Z,2.57
2022-08-09T16:33:10.528Z,3.08
2022-08-09T16:35:57.606Z,3.03
2022-08-09T16:38:32.785Z,2.83
2022-08-09T16:41:04.057Z,3.13
2022-08-09T16:43:34.341Z,3.50
2022-08-09T16:46:07.851Z,3.00
2022-08-09T16:48:56.857Z,3.35
2022-08-09T16:51:23.984Z,2.92
2022-08-09T16:54:25.409Z,4.25
2022-08-09T16:56:37.113Z,3.77
2022-08-09T16:59:15.603Z,3.20
2022-08-09T17:01:51.081Z,3.35
2022-08-09T17:04:25.405Z,3.50
2022-08-09T17:08:41.128Z,2.88
2022-08-09T17:09:44.905Z,3.47
2022-08-09T17:12:13.255Z,3.10
2022-08-09T17:14:39.844Z,3.35
2022-08-09T17:17:26.294Z,3.22
2022-08-09T17:20:28.778Z,3.10
2022-08-09T17:22:50.087Z,2.87
2022-08-09T17:25:18.379Z,2.83
2022-08-09T17:27:49.627Z,3.05
2022-08-09T17:30:28.840Z,3.58
2022-08-09T17:33:04.618Z,4.05
2022-08-09T17:35:33.269Z,3.00
2022-08-09T17:38:12.001Z,3.13
2022-08-09T17:40:47.279Z,3.38
2022-08-09T17:43:33.515Z,3.40
2022-08-09T17:46:03.681Z,3.33
2022-08-09T17:48:54.366Z,3.27
2022-08-09T17:51:22.618Z,3.22
2022-08-09T17:53:53.447Z,3.58
2022-08-09T17:56:27.953Z,3.20
2022-08-09T17:58:59.637Z,3.40
2022-08-09T18:01:58.225Z,3.37
2022-08-09T18:04:13.079Z,2.97
2022-08-09T18:06:40.017Z,3.35
2022-08-09T18:09:09.715Z,3.47
2022-08-09T18:12:05.925Z,3.10
2022-08-09T18:14:26.056Z,3.47
2022-08-09T18:16:53.563Z,3.30
2022-08-09T18:20:54.434Z,3.08
2022-08-09T18:22:16.670Z,3.15
2022-08-09T18:24:47.407Z,3.38
2022-08-09T18:27:49.176Z,3.37
2022-08-09T18:30:41.056Z,3.42
2022-08-09T18:32:54.262Z,4.60
2022-08-09T18:35:56.341Z,3.63
2022-08-09T18:38:09.874Z,3.50
2022-08-09T18:40:38.625Z,3.80
2022-08-09T18:43:05.117Z,4.80
2022-08-09T18:46:50.786Z,4.30
2022-08-09T18:48:18.751Z,4.05
2022-08-09T18:50:46.925Z,4.45
2022-08-09T18:53:16.552Z,4.03
2022-08-09T18:55:56.407Z,4.10
2022-08-09T18:58:32.115Z,3.60
2022-08-09T19:01:00.459Z,4.00
2022-08-09T19:03:27.290Z,3.78
2022-08-09T19:06:03.704Z,3.80
2022-08-09T19:08:31.551Z,3.80
2022-08-09T19:10:58.268Z,3.78
2022-08-09T19:13:49.675Z,3.65
2022-08-09T19:16:13.169Z,3.90
2022-08-09T19:18:45.478Z,4.13
2022-08-09T19:21:12.786Z,3.85
2022-08-09T19:24:35.917Z,4.00
2022-08-09T19:26:31.177Z,3.80
2022-08-09T19:29:01.757Z,3.70
2022-08-09T19:31:30.269Z,3.83
2022-08-09T19:34:00.075Z,3.88
2022-08-09T19:36:30.901Z,4.00
2022-08-09T19:38:59.259Z,3.67
2022-08-09T19:41:33.497Z,3.88
2022-08-09T19:44:03.308Z,5.07
2022-08-09T19:46:34.924Z,4.10
2022-08-09T19:50:06.932Z,8.07
2022-08-09T19:51:51.729Z,5.78
2022-08-09T19:54:24.990Z,4.00
2022-08-09T19:56:52.045Z,4.10
2022-08-09T19:59:58.932Z,4.03
2022-08-09T20:03:24.099Z,4.25
2022-08-09T20:04:55.558Z,4.18
2022-08-09T20:07:24.565Z,4.20
2022-08-09T20:09:51.078Z,4.40
2022-08-09T20:12:30.065Z,4.60
2022-08-09T20:15:14.045Z,4.95
2022-08-09T20:17:54.444Z,4.97
2022-08-09T20:20:22.115Z,4.72
2022-08-09T20:22:51.267Z,4.70
2022-08-09T20:25:23.086Z,5.18
2022-08-09T20:27:49.831Z,5.35
2022-08-09T20:30:17.904Z,4.88
2022-08-09T20:32:52.517Z,6.78
2022-08-09T20:35:21.282Z,7.30
2022-08-09T20:38:22.382Z,7.75
2022-08-09T20:40:35.901Z,7.38
2022-08-09T20:43:11.961Z,7.03
2022-08-09T20:46:01.974Z,6.93
2022-08-09T20:48:31.851Z,6.53
2022-08-09T20:51:00.100Z,6.50
2022-08-09T20:53:37.567Z,6.30
2022-08-09T20:56:08.908Z,5.68
2022-08-09T20:58:37.928Z,5.70
2022-08-09T21:01:33.161Z,6.13
2022-08-09T21:04:08.146Z,6.40
2022-08-09T21:06:41.462Z,6.75
2022-08-09T21:09:14.112Z,6.63
2022-08-09T21:14:27.498Z,6.63
2022-08-09T21:16:57.888Z,6.30
2022-08-09T21:20:18.049Z,6.95
2022-08-09T21:22:35.472Z,6.65
2022-08-09T21:25:20.855Z,6.97
2022-08-09T21:28:01.434Z,6.33
2022-08-09T21:30:28.155Z,7.28
2022-08-09T21:32:54.746Z,6.53
2022-08-09T21:35:23.734Z,7.15
2022-08-09T21:37:58.692Z,6.50
2022-08-09T21:40:30.935Z,6.67
2022-08-09T21:43:00.031Z,6.18
2022-08-09T21:45:28.025Z,5.97
2022-08-09T21:47:56.018Z,6.53
2022-08-09T21:50:36.019Z,5.85
2022-08-09T21:53:23.815Z,6.40
2022-08-09T21:55:54.332Z,6.32
2022-08-09T21:58:21.064Z,6.60
2022-08-09T22:00:55.837Z,6.20
2022-08-09T22:03:25.545Z,6.18
2022-08-09T22:05:53.215Z,5.93
2022-08-09T22:08:23.013Z,6.18
2022-08-09T22:11:00.602Z,6.50
2022-08-09T22:13:43.297Z,5.95
2022-08-09T22:16:10.647Z,5.55
2022-08-09T22:18:53.197Z,5.40
2022-08-09T22:21:27.495Z,5.70
2022-08-09T22:24:17.297Z,5.65
2022-08-09T22:26:52.230Z,6.18
2022-08-09T22:29:24.121Z,5.88
2022-08-09T22:31:57.035Z,6.17
2022-08-09T22:34:27.547Z,6.03
2022-08-09T22:36:55.304Z,6.38
2022-08-09T22:39:55.979Z,6.43
2022-08-09T22:42:21.548Z,6.72
2022-08-09T22:45:00.547Z,6.53
2022-08-09T22:48:11.602Z,6.82
2022-08-09T22:50:26.915Z,7.10
2022-08-09T22:52:57.985Z,6.97
2022-08-09T22:55:39.370Z,6.28
2022-08-09T22:58:30.568Z,7.43
2022-08-09T23:01:02.498Z,8.55
2022-08-09T23:04:02.230Z,7.43
2022-08-09T23:06:35.734Z,8.23
2022-08-09T23:09:06.776Z,7.80
2022-08-09T23:11:33.490Z,7.60
2022-08-09T23:14:00.040Z,7.90
2022-08-09T23:16:26.582Z,8.60
2022-08-09T23:18:53.060Z,7.55
2022-08-09T23:21:25.929Z,7.00
2022-08-09T23:23:58.840Z,6.87
2022-08-09T23:26:33.472Z,7.00
2022-08-09T23:29:00.085Z,7.75
2022-08-09T23:31:29.094Z,7.78
2022-08-09T23:33:55.608Z,8.15
2022-08-09T23:36:22.150Z,8.23
2022-08-09T23:38:50.988Z,7.45
2022-08-09T23:41:27.738Z,7.35
2022-08-09T23:43:59.671Z,7.88
2022-08-09T23:46:27.217Z,7.85
2022-08-09T23:48:53.868Z,7.57
2022-08-09T23:51:20.481Z,7.47
2022-08-09T23:53:47.339Z,7.82
2022-08-09T23:56:17.067Z,7.47
2022-08-09T23:59:05.898Z,7.95
